Time;durP1;ratioP1;P1;durP2;ratioP2;P2;SDS_P1;SDS_P2;PMS_P1;PMS_P2;Temp;Humidity;BMP_temperature;BMP_pressure;BME280_temperature;BME280_humidity;BME280_pressure;Samples;Min_cycle;Max_cycle;Signal;HPM_P1;HPM_P2
2021/11/10 00:02:04;;;;;;;7.53;5.20;;;8.40;99.90;;;;;;6133611;23;20406;-87
2021/11/10 00:04:31;;;;;;;10.07;5.37;;;8.30;99.90;;;;;;6158373;23;20406;-87
2021/11/10 00:07:03;;;;;;;9.37;5.77;;;8.20;99.90;;;;;;6135040;23;20791;-86
2021/11/10 00:09:58;;;;;;;8.63;5.63;;;8.20;99.90;;;;;;6121809;23;20506;-86
2021/11/10 00:12:30;;;;;;;7.73;5.33;;;8.20;99.90;;;;;;6129345;23;20449;-86
2021/11/10 00:14:57;;;;;;;6.27;5.10;;;8.10;99.90;;;;;;6161301;23;20753;-86
2021/11/10 00:17:24;;;;;;;9.83;6.23;;;8.10;99.90;;;;;;6132988;23;20505;-85
2021/11/10 00:19:51;;;;;;;7.60;5.50;;;8.00;99.90;;;;;;6133769;23;20409;-85
2021/11/10 00:22:19;;;;;;;6.47;4.80;;;8.00;99.90;;;;;;6139715;23;20414;-85
2021/11/10 00:24:47;;;;;;;8.33;5.20;;;8.00;99.90;;;;;;6142857;23;20418;-86
2021/11/10 00:27:15;;;;;;;8.97;5.37;;;8.10;99.90;;;;;;6137732;23;20414;-85
2021/11/10 00:29:42;;;;;;;8.93;6.00;;;8.30;99.90;;;;;;6135621;23;20445;-85
2021/11/10 00:32:08;;;;;;;7.17;4.97;;;8.20;99.90;;;;;;6171581;23;20453;-86
2021/11/10 00:34:35;;;;;;;6.43;5.67;;;8.30;99.90;;;;;;6169420;23;20881;-85
2021/11/10 00:37:02;;;;;;;6.73;5.27;;;8.20;99.90;;;;;;6161451;23;20460;-84
2021/11/10 00:39:29;;;;;;;9.23;4.83;;;8.10;99.90;;;;;;6112250;23;20460;-85
2021/11/10 00:42:04;;;;;;;8.50;5.40;;;8.00;99.90;;;;;;6161320;23;20415;-85
2021/11/10 00:44:30;;;;;;;5.90;5.30;;;8.00;99.90;;;;;;6159590;23;20397;-85
2021/11/10 00:46:57;;;;;;;6.40;5.50;;;7.90;99.90;;;;;;6160094;23;20782;-88
2021/11/10 00:49:27;;;;;;;9.30;5.90;;;7.80;99.90;;;;;;6133119;23;20442;-85
2021/11/10 00:51:54;;;;;;;7.10;5.50;;;7.80;99.90;;;;;;6132960;23;20452;-86
2021/11/10 00:54:21;;;;;;;10.03;6.93;;;7.90;99.90;;;;;;6131786;23;20421;-85
2021/11/10 00:56:51;;;;;;;7.97;5.40;;;7.80;99.90;;;;;;6134779;23;20406;-84
2021/11/10 00:59:18;;;;;;;7.80;5.73;;;7.80;99.90;;;;;;6132835;23;20430;-86
2021/11/10 01:01:44;;;;;;;9.23;6.43;;;7.80;99.90;;;;;;6155968;23;20418;-86
2021/11/10 01:04:11;;;;;;;7.60;5.60;;;7.80;99.90;;;;;;6158421;23;20969;-86
2021/11/10 01:06:38;;;;;;;8.73;4.97;;;7.80;99.90;;;;;;6160898;23;20411;-84
2021/11/10 01:09:05;;;;;;;6.20;5.60;;;7.80;99.90;;;;;;6131739;23;20437;-86
2021/11/10 01:11:32;;;;;;;5.73;4.97;;;7.90;99.90;;;;;;6160421;23;20545;-85
2021/11/10 01:14:01;;;;;;;7.00;5.73;;;7.80;99.90;;;;;;6134006;23;20442;-86
2021/11/10 01:16:28;;;;;;;8.57;5.47;;;7.80;99.90;;;;;;6159498;23;20420;-85
2021/11/10 01:18:54;;;;;;;6.10;5.43;;;7.80;99.90;;;;;;6132883;23;20428;-85
2021/11/10 01:21:21;;;;;;;8.60;5.27;;;7.80;99.90;;;;;;6127935;23;20418;-84
2021/11/10 01:23:48;;;;;;;8.33;5.83;;;7.80;99.90;;;;;;6157658;23;20413;-84
2021/11/10 01:26:14;;;;;;;8.93;5.90;;;7.70;99.90;;;;;;6159422;23;20940;-85
2021/11/10 01:28:41;;;;;;;7.20;5.00;;;7.50;99.90;;;;;;6133315;23;20439;-85
2021/11/10 01:31:08;;;;;;;9.47;6.60;;;7.60;99.90;;;;;;6130052;23;20411;-87
2021/11/10 01:33:35;;;;;;;8.13;7.00;;;7.50;99.90;;;;;;6130523;23;20990;-85
2021/11/10 01:36:02;;;;;;;7.90;5.20;;;7.40;99.90;;;;;;6131937;23;20433;-87
2021/11/10 01:38:28;;;;;;;6.90;6.20;;;7.30;99.90;;;;;;6157581;23;20459;-86
2021/11/10 01:40:55;;;;;;;9.67;5.90;;;7.30;99.90;;;;;;6134119;23;20415;-86
2021/11/10 01:43:25;;;;;;;9.57;5.90;;;7.20;99.90;;;;;;6134522;23;20972;-86
2021/11/10 01:45:56;;;;;;;6.93;5.87;;;7.20;99.90;;;;;;6134429;23;20422;-85
2021/11/10 01:48:24;;;;;;;7.20;5.97;;;7.20;99.90;;;;;;6157939;23;20511;-87
2021/11/10 01:50:51;;;;;;;7.80;5.57;;;7.30;99.90;;;;;;6159198;23;21403;-86
2021/11/10 01:53:18;;;;;;;10.77;5.60;;;7.30;99.90;;;;;;6131906;23;20832;-85
2021/11/10 01:55:45;;;;;;;8.63;5.10;;;7.20;99.90;;;;;;6130779;23;20411;-86
2021/11/10 01:58:13;;;;;;;7.00;5.13;;;7.00;99.90;;;;;;6128829;23;20469;-85
2021/11/10 02:00:43;;;;;;;8.63;5.60;;;7.00;99.90;;;;;;6154203;23;20489;-85
2021/11/10 02:03:12;;;;;;;7.47;6.00;;;6.90;99.90;;;;;;6129065;23;20423;-84
2021/11/10 02:05:39;;;;;;;9.10;6.17;;;6.80;99.90;;;;;;6154370;23;20414;-86
2021/11/10 02:08:05;;;;;;;8.53;6.03;;;6.80;99.90;;;;;;6124865;23;20814;-85
2021/11/10 02:10:32;;;;;;;8.70;6.33;;;6.90;99.90;;;;;;6152960;23;20841;-86
2021/11/10 02:12:59;;;;;;;8.30;5.20;;;6.80;99.90;;;;;;6126439;23;20446;-85
2021/11/10 02:15:25;;;;;;;8.43;6.20;;;6.80;99.90;;;;;;6123157;23;20411;-83
2021/11/10 02:17:56;;;;;;;8.40;5.33;;;6.80;99.90;;;;;;6124735;23;20435;-85
2021/11/10 02:20:29;;;;;;;6.17;5.37;;;6.90;99.90;;;;;;6124718;23;20391;-83
2021/11/10 02:22:55;;;;;;;7.90;6.20;;;6.80;99.90;;;;;;6127079;23;20425;-85
2021/11/10 02:25:27;;;;;;;9.53;6.17;;;6.80;99.90;;;;;;6149489;23;20415;-84
2021/11/10 02:27:59;;;;;;;11.43;6.70;;;6.70;99.90;;;;;;6126962;23;20434;-85
2021/11/10 02:30:27;;;;;;;8.17;5.93;;;6.60;99.90;;;;;;6134185;23;21071;-85
2021/11/10 02:32:59;;;;;;;8.70;6.60;;;6.70;99.90;;;;;;6140398;23;20446;-83
2021/11/10 02:35:29;;;;;;;7.33;6.10;;;6.70;99.90;;;;;;6167107;23;20410;-84
2021/11/10 02:38:05;;;;;;;8.20;5.87;;;6.70;99.90;;;;;;6156943;23;20781;-84
2021/11/10 02:40:34;;;;;;;9.17;7.10;;;6.70;99.90;;;;;;6129172;23;20417;-83
2021/11/10 02:43:00;;;;;;;8.63;6.33;;;6.80;99.90;;;;;;6151233;23;20428;-85
2021/11/10 02:45:29;;;;;;;8.17;6.30;;;6.70;99.90;;;;;;6130316;23;20415;-83
2021/11/10 02:47:57;;;;;;;10.80;6.90;;;6.60;99.90;;;;;;6155997;23;20499;-84
2021/11/10 02:50:29;;;;;;;9.30;6.97;;;6.40;99.90;;;;;;6129812;23;20944;-84
2021/11/10 02:52:56;;;;;;;9.70;6.33;;;6.30;99.90;;;;;;6129781;23;20435;-86
2021/11/10 02:55:26;;;;;;;7.37;5.90;;;6.30;99.90;;;;;;6156867;23;20592;-84
2021/11/10 02:57:53;;;;;;;8.30;5.77;;;6.30;99.90;;;;;;6129238;23;20458;-85
2021/11/10 03:00:20;;;;;;;8.47;6.23;;;6.40;99.90;;;;;;6127870;23;20727;-84
2021/11/10 03:02:46;;;;;;;8.77;6.10;;;6.30;99.90;;;;;;6128734;23;20419;-86
2021/11/10 03:27:55;;;;;;;8.70;6.30;;;6.70;99.90;;;;;;6165113;23;20484;-86
2021/11/10 03:30:22;;;;;;;6.57;5.97;;;6.60;99.90;;;;;;6140447;23;20402;-84
2021/11/10 03:36:38;;;;;;;11.27;6.30;;;6.30;99.90;;;;;;6157536;23;20421;-85
2021/11/10 03:39:08;;;;;;;9.10;6.30;;;6.30;99.90;;;;;;6132626;23;20864;-86
2021/11/10 03:42:26;;;;;;;9.13;7.27;;;6.30;99.90;;;;;;6131607;23;20957;-85
2021/11/10 03:44:52;;;;;;;8.80;6.90;;;6.30;99.90;;;;;;6154218;23;20432;-87
2021/11/10 03:47:19;;;;;;;9.20;6.73;;;6.20;99.90;;;;;;6156748;23;20432;-84
2021/11/10 03:49:46;;;;;;;10.07;6.70;;;6.30;99.90;;;;;;6131610;23;20419;-85
2021/11/10 03:52:14;;;;;;;8.03;5.60;;;6.40;99.90;;;;;;6157538;23;20446;-86
2021/11/10 03:54:42;;;;;;;9.60;6.90;;;6.40;99.90;;;;;;6154656;23;20416;-85
2021/11/10 03:57:09;;;;;;;8.40;6.20;;;6.40;99.90;;;;;;6157170;23;21218;-86
2021/11/10 03:59:37;;;;;;;6.80;5.70;;;6.30;99.90;;;;;;6156850;23;20429;-85
2021/11/10 04:02:06;;;;;;;7.77;6.17;;;6.20;99.90;;;;;;6155740;23;20982;-85
2021/11/10 04:04:33;;;;;;;11.80;6.33;;;6.30;99.90;;;;;;6130141;23;20516;-85
2021/11/10 04:07:00;;;;;;;7.27;6.10;;;6.30;99.90;;;;;;6129211;23;20416;-85
2021/11/10 04:09:27;;;;;;;9.70;6.07;;;6.30;99.90;;;;;;6130225;23;20427;-83
2021/11/10 04:11:54;;;;;;;8.83;6.20;;;6.20;99.90;;;;;;6153555;23;20448;-84
2021/11/10 04:14:21;;;;;;;7.67;6.83;;;6.20;99.90;;;;;;6129966;23;20410;-85
2021/11/10 04:16:49;;;;;;;9.70;6.87;;;6.10;99.90;;;;;;6129511;23;20891;-83
2021/11/10 04:19:16;;;;;;;9.00;6.80;;;6.00;99.90;;;;;;6129640;23;20470;-84
2021/11/10 04:21:45;;;;;;;8.53;5.90;;;6.10;99.90;;;;;;6124588;23;20415;-84
2021/11/10 04:24:12;;;;;;;13.57;6.97;;;6.10;99.90;;;;;;6132002;23;20423;-85
2021/11/10 04:26:40;;;;;;;10.90;6.47;;;6.00;99.90;;;;;;6131994;23;20410;-84
2021/11/10 04:29:15;;;;;;;9.07;6.20;;;5.90;99.90;;;;;;6131948;23;20838;-84
2021/11/10 04:31:44;;;;;;;9.07;5.60;;;6.10;99.90;;;;;;6130555;23;20484;-84
2021/11/10 04:34:11;;;;;;;7.23;6.07;;;6.10;99.90;;;;;;6129565;23;20755;-83
2021/11/10 04:36:38;;;;;;;9.40;6.30;;;6.00;99.90;;;;;;6155611;23;20434;-85
2021/11/10 04:39:14;;;;;;;7.97;5.80;;;6.30;99.90;;;;;;6132129;23;20783;-85
2021/11/10 04:41:41;;;;;;;10.63;6.90;;;6.40;99.90;;;;;;6130322;23;21146;-85
2021/11/10 04:44:08;;;;;;;13.93;6.60;;;6.40;99.90;;;;;;6158360;23;20419;-85
2021/11/10 04:46:35;;;;;;;9.43;6.47;;;6.30;99.90;;;;;;6129121;23;20445;-84
2021/11/10 04:49:04;;;;;;;6.77;6.10;;;6.10;99.90;;;;;;6131709;23;20436;-84
2021/11/10 04:51:32;;;;;;;9.90;6.30;;;6.10;99.90;;;;;;6156603;23;20407;-85
2021/11/10 04:54:04;;;;;;;6.70;5.43;;;6.30;99.90;;;;;;6155996;23;20449;-84
2021/11/10 04:56:31;;;;;;;11.17;5.97;;;6.40;99.90;;;;;;6156437;23;20414;-84
2021/11/10 04:59:00;;;;;;;7.90;6.20;;;6.30;99.90;;;;;;6131594;23;20967;-83
2021/11/10 05:01:31;;;;;;;8.63;6.80;;;6.30;99.90;;;;;;6130391;23;20418;-84
2021/11/10 05:03:58;;;;;;;9.87;6.67;;;6.50;99.90;;;;;;6169807;23;20403;-85
2021/11/10 05:06:28;;;;;;;8.53;7.03;;;6.60;99.90;;;;;;6180682;23;20443;-84
2021/11/10 05:08:55;;;;;;;9.17;6.27;;;6.50;99.90;;;;;;6154679;23;20428;-86
2021/11/10 05:11:28;;;;;;;8.90;5.63;;;6.20;99.90;;;;;;6159530;23;20712;-85
2021/11/10 05:13:54;;;;;;;9.97;7.70;;;6.30;99.90;;;;;;6146828;23;20450;-85
2021/11/10 05:16:21;;;;;;;11.30;6.70;;;6.30;99.90;;;;;;6134743;23;20442;-83
2021/11/10 05:18:51;;;;;;;7.87;5.83;;;6.30;99.90;;;;;;6131168;23;20958;-83
2021/11/10 05:21:20;;;;;;;10.90;6.80;;;6.40;99.90;;;;;;6153679;23;20480;-85
2021/11/10 05:23:47;;;;;;;12.57;7.07;;;6.40;99.90;;;;;;6126599;23;20532;-85
2021/11/10 05:26:13;;;;;;;9.93;6.67;;;6.30;99.90;;;;;;6155000;23;20504;-84
2021/11/10 05:28:40;;;;;;;5.60;5.10;;;6.20;99.90;;;;;;6131861;23;20854;-85
2021/11/10 05:31:07;;;;;;;8.30;6.30;;;6.10;99.90;;;;;;6128365;23;20430;-85
2021/11/10 05:33:34;;;;;;;7.80;6.13;;;5.90;99.90;;;;;;6157821;23;20820;-86
2021/11/10 05:36:00;;;;;;;10.40;6.60;;;6.00;99.90;;;;;;6157643;23;20394;-84
2021/11/10 05:38:27;;;;;;;8.40;6.40;;;5.90;99.90;;;;;;6131091;23;20518;-83
2021/11/10 05:40:57;;;;;;;10.77;7.60;;;6.00;99.90;;;;;;6130503;23;20412;-83
2021/11/10 05:43:23;;;;;;;9.70;6.47;;;6.20;99.90;;;;;;6156075;23;20422;-84
2021/11/10 05:46:15;;;;;;;7.67;6.00;;;6.10;99.90;;;;;;6130741;23;20421;-86
2021/11/10 05:48:42;;;;;;;14.10;7.80;;;6.00;99.90;;;;;;6133280;23;20471;-87
2021/11/10 05:51:12;;;;;;;14.43;7.43;;;6.10;99.90;;;;;;6133940;23;20522;-86
2021/11/10 05:54:06;;;;;;;9.83;6.93;;;6.20;99.90;;;;;;6134454;23;20453;-86
2021/11/10 05:56:43;;;;;;;13.87;7.57;;;6.20;99.90;;;;;;6070841;23;20452;-86
2021/11/10 05:59:13;;;;;;;14.40;7.80;;;6.10;99.90;;;;;;6048801;23;20436;-87
2021/11/10 06:02:03;;;;;;;16.83;9.57;;;6.10;99.90;;;;;;6115488;23;20407;-86
2021/11/10 06:04:33;;;;;;;15.03;7.83;;;6.20;99.90;;;;;;6140884;23;20777;-84
2021/11/10 06:07:07;;;;;;;8.63;6.00;;;6.20;99.90;;;;;;6143891;23;20514;-88
2021/11/10 06:09:34;;;;;;;9.60;6.17;;;6.20;99.90;;;;;;6171313;23;20502;-86
2021/11/10 06:12:18;;;;;;;7.70;5.50;;;6.10;99.90;;;;;;6140450;23;20407;-87
2021/11/10 06:14:57;;;;;;;8.07;7.10;;;6.10;99.90;;;;;;6167733;23;20448;-85
2021/11/10 06:17:30;;;;;;;12.70;7.73;;;6.00;99.90;;;;;;6167795;23;20414;-87
2021/11/10 06:19:56;;;;;;;13.27;6.90;;;6.10;99.90;;;;;;6139263;23;20809;-88
2021/11/10 06:22:23;;;;;;;12.57;6.60;;;6.10;99.90;;;;;;6137992;23;20503;-85
2021/11/10 06:28:36;;;;;;;11.60;7.20;;;5.90;99.90;;;;;;5998109;23;20995;-86
2021/11/10 06:31:03;;;;;;;12.87;7.40;;;5.80;99.90;;;;;;6049266;23;20902;-85
2021/11/10 06:33:46;;;;;;;16.00;7.10;;;5.80;99.90;;;;;;6140934;23;20443;-88
2021/11/10 06:36:30;;;;;;;13.60;6.67;;;6.10;99.90;;;;;;6139139;23;20509;-86
2021/11/10 06:39:11;;;;;;;24.57;8.30;;;6.00;99.90;;;;;;6138998;23;20440;-87
2021/11/10 06:41:38;;;;;;;16.23;8.73;;;6.10;99.90;;;;;;6140859;23;20422;-87
2021/11/10 06:44:05;;;;;;;10.93;7.40;;;6.20;99.90;;;;;;6163897;23;20529;-85
2021/11/10 06:46:33;;;;;;;22.57;7.70;;;6.20;99.90;;;;;;6139139;23;20510;-87
2021/11/10 06:48:59;;;;;;;19.00;9.30;;;6.20;99.90;;;;;;6162191;23;20470;-86
2021/11/10 06:51:33;;;;;;;21.63;8.83;;;6.30;99.90;;;;;;6138767;23;20400;-86
2021/11/10 06:54:00;;;;;;;15.30;8.30;;;6.20;99.90;;;;;;6138208;23;20446;-88
2021/11/10 06:56:27;;;;;;;12.23;7.80;;;6.30;99.90;;;;;;6136683;23;20896;-85
2021/11/10 06:58:53;;;;;;;9.63;6.83;;;6.30;99.90;;;;;;6160412;23;20435;-83
2021/11/10 07:01:20;;;;;;;10.07;7.23;;;6.00;99.90;;;;;;6134668;23;20470;-87
2021/11/10 07:03:47;;;;;;;8.97;7.03;;;6.00;99.90;;;;;;6137149;23;20514;-86
2021/11/10 07:06:17;;;;;;;8.63;6.77;;;6.00;99.90;;;;;;6136032;23;21155;-87
2021/11/10 07:08:44;;;;;;;11.57;6.27;;;6.00;99.90;;;;;;6163102;23;20898;-84
2021/11/10 07:11:19;;;;;;;8.17;5.67;;;6.00;99.90;;;;;;6138949;23;20414;-88
2021/11/10 07:13:47;;;;;;;7.83;6.20;;;5.90;99.90;;;;;;6160620;23;20450;-86
2021/11/10 07:16:14;;;;;;;12.87;6.40;;;5.90;99.90;;;;;;6136858;23;20421;-85
2021/11/10 07:18:41;;;;;;;6.87;5.57;;;5.90;99.90;;;;;;6161443;23;20470;-88
2021/11/10 07:21:09;;;;;;;7.13;6.13;;;5.90;99.90;;;;;;6136452;23;20701;-85
2021/11/10 07:23:35;;;;;;;10.10;6.30;;;5.80;99.90;;;;;;6133946;23;20933;-86
2021/11/10 07:26:05;;;;;;;10.83;5.80;;;5.90;99.90;;;;;;6141625;23;20402;-88
2021/11/10 07:28:37;;;;;;;10.40;8.13;;;5.70;99.90;;;;;;6147904;23;20440;-87
2021/11/10 07:31:04;;;;;;;8.57;5.50;;;5.80;99.90;;;;;;6148248;23;20407;-85
2021/11/10 07:33:34;;;;;;;7.00;5.77;;;6.20;99.90;;;;;;6143689;23;20786;-85
2021/11/10 07:36:01;;;;;;;13.27;5.73;;;6.40;99.90;;;;;;6175702;23;20422;-85
2021/11/10 07:38:28;;;;;;;7.57;6.03;;;6.30;99.90;;;;;;6174329;23;20918;-84
2021/11/10 07:40:56;;;;;;;11.37;5.67;;;6.10;99.90;;;;;;6174562;23;20643;-86
2021/11/10 07:43:27;;;;;;;7.37;6.53;;;6.10;99.90;;;;;;6148265;23;21262;-84
2021/11/10 07:46:03;;;;;;;8.90;6.07;;;6.30;99.90;;;;;;6167158;23;20445;-85
2021/11/10 07:48:30;;;;;;;11.97;7.23;;;6.30;99.90;;;;;;6135827;23;20434;-85
2021/11/10 07:50:57;;;;;;;8.83;6.13;;;6.40;99.90;;;;;;6160192;23;20447;-85
2021/11/10 07:53:24;;;;;;;7.53;6.23;;;6.30;99.90;;;;;;6158943;23;20442;-85
2021/11/10 07:55:51;;;;;;;8.50;6.83;;;6.20;99.90;;;;;;6134482;23;20412;-84
2021/11/10 07:58:19;;;;;;;10.20;6.50;;;6.10;99.90;;;;;;6134929;23;20521;-84
2021/11/10 08:00:46;;;;;;;8.70;6.17;;;6.20;99.90;;;;;;6162888;23;20395;-85
2021/11/10 08:03:13;;;;;;;9.17;7.40;;;6.20;99.90;;;;;;6132387;23;20428;-85
2021/11/10 08:05:40;;;;;;;10.17;7.73;;;6.20;99.90;;;;;;6135633;23;20413;-84
2021/11/10 08:08:06;;;;;;;9.57;6.73;;;6.30;99.90;;;;;;6159833;23;20445;-84
2021/11/10 08:10:52;;;;;;;8.97;7.40;;;6.30;99.90;;;;;;6161839;23;20418;-83
2021/11/10 08:13:22;;;;;;;8.23;6.40;;;6.20;99.90;;;;;;6133589;23;20548;-86
2021/11/10 08:15:53;;;;;;;11.37;6.17;;;6.20;99.90;;;;;;6162081;23;20417;-84
2021/11/10 08:18:58;;;;;;;10.47;7.23;;;6.10;99.90;;;;;;6130580;23;20451;-85
2021/11/10 08:21:29;;;;;;;13.90;6.40;;;6.10;99.90;;;;;;6089715;23;20436;-84
2021/11/10 08:23:56;;;;;;;9.13;6.17;;;6.10;99.90;;;;;;6133166;23;20437;-86
2021/11/10 08:26:29;;;;;;;9.53;7.07;;;6.40;99.90;;;;;;6138937;23;20745;-86
2021/11/10 08:28:59;;;;;;;10.00;6.80;;;6.50;99.90;;;;;;6128783;23;20490;-85
2021/11/10 08:31:26;;;;;;;8.50;6.50;;;6.70;99.90;;;;;;6164021;23;20732;-86
2021/11/10 08:34:03;;;;;;;7.27;6.20;;;6.70;99.90;;;;;;6134488;23;20876;-84
2021/11/10 08:36:55;;;;;;;13.50;7.20;;;6.70;99.90;;;;;;6136320;23;20572;-86
2021/11/10 08:39:30;;;;;;;10.80;7.83;;;6.70;99.90;;;;;;6162205;23;20432;-84
2021/11/10 08:42:01;;;;;;;9.67;7.20;;;6.80;99.90;;;;;;6163555;23;20414;-87
2021/11/10 08:44:28;;;;;;;11.07;6.50;;;6.60;99.90;;;;;;6164447;23;20437;-85
2021/11/10 08:46:56;;;;;;;13.03;6.63;;;6.70;99.90;;;;;;6136296;23;21005;-84
2021/11/10 08:49:33;;;;;;;8.20;7.10;;;6.90;99.90;;;;;;6135212;23;21034;-83
2021/11/10 08:52:11;;;;;;;9.60;7.23;;;7.00;99.90;;;;;;6132116;23;20474;-86
2021/11/10 08:55:00;;;;;;;11.27;7.93;;;7.10;99.90;;;;;;6158259;23;20533;-84
2021/11/10 08:57:27;;;;;;;12.20;7.90;;;7.20;99.90;;;;;;6133127;23;20450;-83
2021/11/10 09:00:00;;;;;;;14.20;7.90;;;7.30;99.90;;;;;;6134772;23;20439;-85
2021/11/10 09:02:27;;;;;;;11.77;7.30;;;7.30;99.90;;;;;;6137480;23;20493;-87
2021/11/10 09:05:03;;;;;;;10.60;6.87;;;7.40;99.90;;;;;;6184057;23;20407;-86
2021/11/10 09:07:31;;;;;;;14.33;12.23;;;7.20;99.90;;;;;;6154999;23;20369;-85
2021/11/10 09:09:59;;;;;;;13.93;8.00;;;7.00;99.90;;;;;;6158178;23;20401;-86
2021/11/10 09:12:32;;;;;;;10.00;7.00;;;6.90;99.90;;;;;;6158043;23;20511;-86
2021/11/10 09:15:10;;;;;;;11.07;6.90;;;7.20;99.90;;;;;;6157728;23;20427;-85
2021/11/10 09:20:34;;;;;;;8.77;7.43;;;7.50;99.90;;;;;;6164585;23;20465;-84
2021/11/10 09:23:29;;;;;;;10.40;7.20;;;7.90;99.90;;;;;;6130347;23;20831;-84
2021/11/10 09:26:11;;;;;;;10.70;7.70;;;7.90;99.90;;;;;;6156374;23;20420;-86
2021/11/10 09:28:38;;;;;;;8.70;6.90;;;8.80;99.90;;;;;;6152606;23;20846;-86
2021/11/10 09:31:22;;;;;;;10.47;7.40;;;10.00;97.60;;;;;;6133186;23;20755;-86
2021/11/10 09:34:10;;;;;;;7.80;6.93;;;10.90;94.60;;;;;;6129033;23;20531;-86
2021/11/10 09:36:52;;;;;;;15.37;7.50;;;11.70;93.30;;;;;;6082968;23;20412;-86
2021/11/10 09:43:08;;;;;;;9.80;8.37;;;12.20;91.50;;;;;;6109863;23;20423;-86
2021/11/10 09:45:36;;;;;;;13.13;8.10;;;11.60;92.00;;;;;;6133181;23;20427;-86
2021/11/10 09:48:25;;;;;;;11.53;8.30;;;11.20;92.40;;;;;;6123578;23;20459;-87
2021/11/10 09:51:05;;;;;;;12.07;8.07;;;10.80;93.40;;;;;;6146182;23;20908;-84
2021/11/10 09:53:34;;;;;;;11.17;7.83;;;10.50;93.80;;;;;;6167271;23;20406;-84
2021/11/10 09:56:02;;;;;;;11.67;8.57;;;10.30;94.20;;;;;;6167595;23;20419;-85
2021/11/10 09:58:31;;;;;;;14.37;9.33;;;10.00;94.70;;;;;;6157540;23;20493;-84
2021/11/10 10:01:04;;;;;;;14.50;10.13;;;9.80;96.00;;;;;;6169723;23;20391;-87
2021/11/10 10:03:34;;;;;;;10.60;9.60;;;9.50;96.40;;;;;;6137964;23;20384;-85
2021/11/10 10:06:14;;;;;;;11.87;8.67;;;9.10;97.30;;;;;;6137025;23;20441;-87
2021/11/10 10:08:43;;;;;;;12.20;8.73;;;8.90;98.50;;;;;;6136584;23;20430;-86
2021/11/10 10:11:11;;;;;;;11.47;9.37;;;9.20;98.50;;;;;;6137021;23;20506;-87
2021/11/10 10:13:38;;;;;;;12.90;8.80;;;9.30;98.00;;;;;;6136465;23;20415;-86
2021/11/10 10:16:12;;;;;;;14.87;9.20;;;9.20;98.10;;;;;;6157824;23;20414;-85
2021/11/10 10:19:05;;;;;;;11.90;8.93;;;9.00;98.40;;;;;;6126718;23;20819;-85
2021/11/10 10:21:39;;;;;;;12.67;9.70;;;8.80;99.30;;;;;;6128673;23;20492;-86
2021/11/10 10:24:26;;;;;;;16.77;9.00;;;8.80;99.60;;;;;;6129241;23;20959;-85
2021/11/10 10:26:53;;;;;;;14.67;9.03;;;8.70;99.90;;;;;;6132371;23;20432;-85
2021/11/10 10:29:51;;;;;;;14.00;10.37;;;8.60;99.90;;;;;;6130938;23;20967;-86
2021/11/10 10:32:38;;;;;;;10.17;8.93;;;8.60;99.90;;;;;;6156506;23;20426;-86
2021/11/10 10:35:28;;;;;;;10.73;8.70;;;8.40;99.90;;;;;;6156567;23;20429;-84
2021/11/10 10:37:54;;;;;;;10.37;8.90;;;8.90;99.90;;;;;;6129155;23;20913;-85
2021/11/10 10:40:29;;;;;;;11.37;8.73;;;9.10;99.70;;;;;;6128520;23;20409;-87
2021/11/10 10:43:12;;;;;;;14.13;9.37;;;9.00;99.70;;;;;;6131801;23;20548;-86
2021/11/10 10:45:53;;;;;;;10.90;8.30;;;9.00;99.60;;;;;;6133486;23;20833;-85
2021/11/10 10:48:31;;;;;;;10.67;8.40;;;8.90;99.70;;;;;;6134006;23;20473;-86
2021/11/10 10:51:04;;;;;;;13.47;8.27;;;9.00;99.90;;;;;;6162117;23;20901;-83
2021/11/10 10:53:37;;;;;;;12.13;7.90;;;9.00;99.90;;;;;;6162152;23;20893;-85
2021/11/10 10:56:13;;;;;;;14.73;9.13;;;9.10;99.70;;;;;;6132945;23;20405;-87
2021/11/10 10:58:41;;;;;;;15.60;9.53;;;9.10;99.70;;;;;;6155840;23;20438;-87
2021/11/10 11:01:24;;;;;;;11.33;8.00;;;9.10;99.70;;;;;;6131942;23;20409;-84
2021/11/10 11:04:13;;;;;;;14.20;9.30;;;9.00;99.90;;;;;;6136408;23;20405;-85
2021/11/10 11:06:43;;;;;;;10.30;8.50;;;8.90;99.90;;;;;;6156521;23;20619;-88
2021/11/10 11:09:29;;;;;;;14.40;9.60;;;9.00;99.90;;;;;;6158474;23;20416;-88
2021/11/10 11:12:11;;;;;;;17.07;9.77;;;9.10;99.90;;;;;;6184742;23;20424;-88
2021/11/10 11:14:45;;;;;;;11.07;8.30;;;9.10;99.80;;;;;;6151741;23;20828;-87
2021/11/10 11:17:18;;;;;;;13.37;8.97;;;9.10;99.90;;;;;;6135075;23;20393;-87
2021/11/10 11:19:57;;;;;;;15.97;9.80;;;9.10;99.90;;;;;;6131679;23;21039;-86
2021/11/10 11:22:35;;;;;;;12.53;8.73;;;9.10;99.90;;;;;;6160934;23;20945;-87
2021/11/10 11:25:28;;;;;;;12.20;8.90;;;9.00;99.90;;;;;;6137495;23;20811;-85
2021/11/10 11:28:04;;;;;;;12.97;8.80;;;9.00;99.90;;;;;;6135932;23;20439;-86
2021/11/10 11:30:39;;;;;;;10.70;9.00;;;9.10;99.90;;;;;;6136210;23;20423;-85
2021/11/10 11:33:15;;;;;;;11.40;9.60;;;9.30;99.90;;;;;;6163136;23;20406;-86
2021/11/10 11:35:45;;;;;;;13.63;9.27;;;9.30;99.90;;;;;;6140169;23;20472;-87
2021/11/10 11:38:15;;;;;;;11.30;10.00;;;9.60;99.40;;;;;;6171803;23;20430;-87
2021/11/10 11:40:43;;;;;;;12.60;10.30;;;9.70;99.20;;;;;;6144678;23;20827;-85
2021/11/10 11:43:19;;;;;;;12.60;10.23;;;9.80;99.00;;;;;;6144319;23;20417;-87
2021/11/10 11:45:49;;;;;;;12.50;9.93;;;9.90;98.50;;;;;;6161772;23;20423;-84
2021/11/10 11:48:18;;;;;;;16.30;11.27;;;10.00;97.50;;;;;;6135203;23;20431;-84
2021/11/10 11:50:47;;;;;;;13.40;11.20;;;10.20;97.70;;;;;;6135929;23;20418;-85
2021/11/10 11:53:15;;;;;;;13.57;9.90;;;10.20;97.50;;;;;;6159540;23;20420;-88
2021/11/10 11:55:49;;;;;;;12.67;10.17;;;10.30;97.60;;;;;;6131219;23;20449;-86
2021/11/10 11:58:20;;;;;;;12.97;10.10;;;10.20;97.40;;;;;;6130938;23;20826;-86
2021/11/10 12:00:50;;;;;;;16.50;11.27;;;10.10;97.80;;;;;;6135882;23;20410;-85
2021/11/10 12:03:23;;;;;;;11.30;10.10;;;10.30;97.70;;;;;;6131225;23;20525;-85
2021/11/10 12:06:13;;;;;;;15.60;11.50;;;10.40;97.30;;;;;;6132975;23;20434;-84
2021/11/10 12:08:59;;;;;;;15.53;10.50;;;10.50;97.10;;;;;;6134378;23;20738;-87
2021/11/10 12:11:28;;;;;;;13.60;11.83;;;10.40;97.00;;;;;;6132558;23;20414;-87
2021/11/10 12:14:07;;;;;;;12.90;11.53;;;10.40;96.90;;;;;;6135223;23;20410;-84
2021/11/10 12:16:53;;;;;;;17.53;12.00;;;10.40;97.00;;;;;;6134051;23;20433;-86
2021/11/10 12:19:28;;;;;;;14.90;11.33;;;10.30;97.20;;;;;;6161670;23;20446;-85
2021/11/10 12:22:02;;;;;;;13.83;10.67;;;10.30;97.40;;;;;;6133634;23;20402;-83
2021/11/10 12:24:40;;;;;;;14.83;12.03;;;10.40;97.00;;;;;;6165103;23;20432;-86
2021/11/10 12:27:32;;;;;;;19.80;11.07;;;10.30;97.00;;;;;;6138796;23;20417;-84
2021/11/10 12:30:11;;;;;;;16.53;11.70;;;10.40;97.00;;;;;;6136320;23;20418;-84
2021/11/10 12:32:38;;;;;;;15.33;11.60;;;10.50;97.10;;;;;;6165154;23;20403;-86
2021/11/10 12:35:33;;;;;;;13.63;11.40;;;10.30;97.00;;;;;;6140529;23;20532;-88
2021/11/10 12:38:03;;;;;;;15.13;10.80;;;10.40;97.00;;;;;;6159952;23;20442;-86
2021/11/10 12:40:57;;;;;;;12.03;9.97;;;10.50;97.40;;;;;;6132073;23;20727;-88
2021/11/10 12:43:27;;;;;;;12.47;10.80;;;10.60;96.50;;;;;;6126167;23;20440;-84
2021/11/10 12:46:05;;;;;;;13.40;9.73;;;10.70;96.20;;;;;;6134602;23;20427;-85
2021/11/10 12:48:46;;;;;;;15.53;10.63;;;10.70;96.00;;;;;;6066259;23;20438;-85
2021/11/10 12:51:29;;;;;;;14.90;12.13;;;10.80;96.00;;;;;;6129322;23;20445;-83
2021/11/10 12:54:19;;;;;;;14.87;10.63;;;10.70;95.80;;;;;;6135742;23;20656;-86
2021/11/10 12:56:54;;;;;;;12.70;10.80;;;10.70;96.20;;;;;;6133708;23;20403;-85
2021/11/10 12:59:31;;;;;;;12.20;10.90;;;10.70;95.80;;;;;;6160573;23;20433;-85
2021/11/10 13:03:10;;;;;;;16.07;11.30;;;10.60;96.20;;;;;;6160980;23;20416;-85
2021/11/10 13:05:39;;;;;;;12.47;10.33;;;10.70;95.90;;;;;;6132970;23;20493;-85
2021/11/10 13:08:40;;;;;;;16.30;11.70;;;10.60;95.80;;;;;;6037170;23;20397;-86
2021/11/10 13:11:35;;;;;;;14.20;10.30;;;10.40;96.00;;;;;;6046907;23;20474;-86
2021/11/10 13:14:28;;;;;;;15.17;11.80;;;10.10;96.50;;;;;;6043962;23;20476;-86
2021/11/10 13:17:11;;;;;;;14.93;11.30;;;10.60;96.40;;;;;;6044047;23;20408;-87
2021/11/10 13:19:43;;;;;;;16.00;11.20;;;10.60;95.90;;;;;;6044702;23;20473;-86
2021/11/10 13:22:17;;;;;;;13.87;11.20;;;10.30;96.30;;;;;;6047287;23;20454;-85
2021/11/10 13:24:49;;;;;;;12.53;9.80;;;10.20;96.90;;;;;;6044264;23;20423;-85
2021/11/10 13:27:27;;;;;;;14.40;9.73;;;10.60;97.00;;;;;;6067646;23;20432;-87
2021/11/10 13:29:54;;;;;;;14.33;11.20;;;10.80;96.10;;;;;;6045256;23;20445;-86
2021/11/10 13:32:21;;;;;;;16.20;11.67;;;11.00;95.70;;;;;;6053671;23;20521;-85
2021/11/10 13:35:00;;;;;;;17.30;11.83;;;11.00;95.40;;;;;;6076989;23;20449;-84
2021/11/10 13:37:44;;;;;;;13.77;11.03;;;11.00;95.40;;;;;;6054665;23;20426;-85
2021/11/10 13:40:18;;;;;;;14.80;12.00;;;10.90;95.10;;;;;;6053838;23;20512;-86
2021/11/10 13:42:51;;;;;;;15.90;11.33;;;10.90;95.10;;;;;;6053425;23;20412;-86
2021/11/10 13:45:32;;;;;;;17.67;12.30;;;10.90;95.30;;;;;;6103625;23;20399;-86
2021/11/10 13:48:08;;;;;;;14.50;11.67;;;10.80;95.30;;;;;;6115328;23;20838;-86
2021/11/10 13:50:47;;;;;;;13.77;12.30;;;10.90;95.60;;;;;;6120470;23;20883;-83
2021/11/10 13:53:27;;;;;;;16.23;13.00;;;11.00;95.40;;;;;;6114426;23;20884;-84